• Join FlightAware (Why Join?)
  • Login
  • US Flag 
Rudolph Flight #1: Arrived! 
06:31AM EST


 

Airport Tracker/Info


-or-


 

Live Flight TrackerFlight Track Log ✈ OPT732 ✈ 09-May-2013 ✈ KDAY - KSBN

Flight Track Log - Related Links

Times and Time Zones

All times are in EDT time to prevent confusion due to time zone crossing. See the OPT732 flight status page for this flight to view local times or setup timezone preferences in your user account.

Time Position Orientation Groundspeed Altitude Reporting Facility
EDT Latitude Longitude Course Direction KTS MPH feet Rate Location/Type
03:27PM 39.8897 -84.2242 256° West 167 192 1,800  Level Indianapolis Center
03:27PM 39.8825 -84.2611 256° West 194 223 3,600 3,360 Climbing Indianapolis Center
03:28PM 39.8786 -84.3369 266° West 247 284 6,700 2,820 Climbing Indianapolis Center
03:29PM 39.8767 -84.3644 265° West 244 281 7,000 2,160 Climbing Indianapolis Center
03:30PM 39.8878 -84.4642 278° West 281 323 9,600 2,460 Climbing Indianapolis Center
03:31PM 39.9714 -84.5128 336° Northwest 322 371 12,200 2,100 Climbing Indianapolis Center
03:32PM 40.0594 -84.5594 338° Northwest 333 383 14,000 1,980 Climbing Indianapolis Center
03:33PM 40.1619 -84.6131 338° Northwest 373 429 16,400 1,860 Climbing Indianapolis Center
03:34PM 40.2603 -84.6756 334° Northwest 392 451 17,900 720 Climbing Indianapolis Center
03:35PM 40.3497 -84.7708 321° Northwest 410 472 17,900  Level Indianapolis Center
03:36PM 40.4447 -84.8689 322° Northwest 425 489 17,900  Level Indianapolis Center
03:37PM 40.5511 -84.9811 321° Northwest 434 499 17,900  Level Indianapolis Center
03:38PM 40.6444 -85.0800 321° Northwest 435 501 18,000 60 Climbing Indianapolis Center
03:38PM 40.6844 -85.1222 321° Northwest 434 499 18,000  Level Chicago Center
03:39PM 40.7797 -85.2217 322° Northwest 435 501 18,000  Level Chicago Center
03:40PM 40.8739 -85.3222 321° Northwest 436 502 18,000  Level Chicago Center
03:41PM 40.9578 -85.4317 315° West 429 494 18,000  Level Chicago Center
03:42PM 41.0392 -85.5436 314° West 422 486 18,000 -60 Level Chicago Center
03:43PM 41.1208 -85.6389 319° Northwest 398 458 17,900 -1,020 Descending Chicago Center
03:45PM 41.1994 -85.7283 319° Northwest 375 432 15,900 -2,220 Descending Chicago Center
03:46PM 41.2994 -85.8436 319° Northwest 392 451 13,400 -2,280 Descending Chicago Center
03:47PM 41.3839 -85.9417 319° Northwest 398 458 11,300 -1,320 Descending Chicago Center
03:48PM 41.4675 -86.0225 324° Northwest 366 421 10,700 -780 Descending Chicago Center
03:49PM 41.5403 -86.0831 328° Northwest 312 359 9,700 -1,320 Descending Chicago Center
03:50PM 41.6128 -86.1225 338° Northwest 285 328 8,000 -1,740 Descending Chicago Center
03:51PM 41.6881 -86.1636 338° Northwest 290 334 6,200 -1,800 Descending Chicago Center
03:52PM 41.7581 -86.2256 327° Northwest 255 293 4,400 -1,500 Descending Chicago Center
03:53PM 41.7725 -86.3025 284° West 226 260 3,100 -1,260 Descending Chicago Center
03:54PM 41.7328 -86.3189 197° South 192 221 1,800 -1,260 Descending Chicago Center
03:56PM 41.7082 -86.3173 180° South  Level Estimated